Wednesday, July 23, 2014
07:55 UTC
  |  Log In   |  Register Free
Airport Search:

Southwest Georgia Regional Airport
(KABY)

Southwest Georgia Regional Airport Diagram
No Airport Diagram Available

FAA data valid effective May 29, 2014 until July 24, 2014 (unless otherwise noted).

 
 
 
 
 
 
 
 
 
 
 
 
 
 

Current Aviation Weather for Southwest Georgia Regional Airport (KABY)

The most recent METAR observation for KABY was updated at: 0653 UTC
METAR Summary (Translated METAR)
KABY
230653Z 00000KT 10SM FEW090 24/23 A3007 RMK AO2 SLP179 T02390228
KMGR
(33.7 nm SE from KABY)
230635Z AUTO 10004KT 7SM CLR 23/23 A3007 RMK AO2
TAF Summary (Translated TAF)
KABY
230520Z 2306/2406 00000KT P6SM SCT100 FM230800 00000KT 6SM BR SKC TEMPO 2310/2312 5SM BR FM231500 23006KT P6SM SCT050
  Airport Weather Conditions for KABY

 Current Weather at ABY
75° F
A Few Clouds
North winds at 0.0 mph
ABY NOAA Radar

Pressure: 30.07 in
Humidity: 94%
Wind: Calm
Dew Point: 73.0°F
Visibility: 10.00 mi


Airport Weather Forecast for KABY

Translated METAR and TAF for KABY
Translated METAR for KABY (0749 UTC 23 July 2014)
found at http://aviationweather.gov/adds/metars/
 
METAR text: KABY 230653Z 00000KT 10SM FEW090 24/23 A3007 RMK AO2 SLP179 T02390228
Conditions at: KABY (ALBANY , GA, US) observed 0653 UTC 23 July 2014
Temperature: 23.9°C (75°F)
Dewpoint: 22.8°C (73°F) [RH = 94%]
Pressure (altimeter): 30.07 inches Hg (1018.4 mb)
[Sea-level pressure: 1017.9 mb]
Winds: calm
Visibility: 10 or more miles (16+ km)
Ceiling: at least 12,000 feet AGL
Clouds: few clouds at 9000 feet AGL
Weather: no significant weather observed at this time
Translated TAF for KABY
Forecast for: KABY (ALBANY , GA, US)
TAF Text: KABY 230520Z 2306/2406 00000KT P6SM SCT100
Forecast period: 0600 to 0800 UTC 23 July 2014
Forecast type: FROM: standard forecast or significant change
Winds: calm
Visibility: 6 or more miles (10+ km)
Clouds: scattered clouds at 10000 feet AGL
Weather: no significant weather forecast for this period
TAF Text: FM230800 00000KT 6SM BR SKC
Forecast period: 0800 to 1500 UTC 23 July 2014
Forecast type: FROM: standard forecast or significant change
Winds: calm
Visibility: 6 miles (10 km)
Clouds: clear skies
Weather: BR  (mist)
TAF Text: TEMPO 2310/2312 5SM BR
Forecast period: 1000 to 1200 UTC 23 July 2014
Forecast type: TEMPORARY: The following changes expected for less than half the time period
Visibility: 5 miles (8 km)
Weather: BR  (mist)
TAF Text: FM231500 23006KT P6SM SCT050
Forecast period: 1500 UTC 23 July 2014 to 0600 UTC 24 July 2014
Forecast type: FROM: standard forecast or significant change
Winds: from the SW (230 degrees) at 7 MPH (6 knots; 3.1 m/s)
Visibility: 6 or more miles (10+ km)
Clouds: scattered clouds at 5000 feet AGL
Weather: no significant weather forecast for this period

Find All Airport Services Find A Hotel Find A Rental Car Find A Golf Course Find A Restaurant $100 Hamburger



FBO's on the Field
FBO Company Facility Photos Services Transportation Aviation Fuel Prices: Prices include tax
Catering Weather Repair Courtesy Rental Type 100LL JetA JetA+ MOGAS 8087
 
Eagles of America, Inc. - ABY

This FBO has not yet been rated
FS:AirBP
Last Updated: Jun-25
Login to update fuel prices
SS:
Contact Eagles of America, Inc. - ABYMore FBO Information
 
Add another FBO Facility Photos Catering Weather Repair Courtesy Rental Type 100LL JetA JetA+ MOGAS 8087
Services Transportation Aviation Fuel Prices: Prices include tax


GlobalAir.com Airport Resource Center model-print
model-print
model-print
model-print